Flight Track Log - Related Links

Times and Time Zones

All times are in EDT time to prevent confusion due to time zone crossing. See the AWE140 flight status page for this flight to view local times or setup timezone preferences in your user account.

Time Position Orientation Groundspeed Altitude Reporting Facility
EDT Latitude Longitude Course Direction KTS MPH feet Rate Location/Type
Sat 10:52:12 PM 33.4333 -112.0833 270° West 214 246 2,500  Level Phoenix TRACON
Sat 10:52:48 PM 33.4331 -112.1286 270° West 227 261 3,000 1,485 Climbing Albuquerque Center
Sat 10:53:49 PM 33.4631 -112.1983 297° West 264 304 4,900 1,869 Climbing Albuquerque Center
Sat 10:54:00 PM 33.7645 -111.8563 15° North  Level FlightAware Approximate
Sat 10:54:50 PM 33.5278 -112.1611 26° Northeast 269 310 6,800  Level Albuquerque Center
Sat 10:55:00 PM 33.8757 -111.8097 20° North  Level FlightAware Approximate
Sat 10:55:51 PM 33.5936 -112.1075 34° Northeast 284 327 8,800  Level Albuquerque Center
Sat 10:56:00 PM 33.9865 -111.7612 20° North  Level FlightAware Approximate
Sat 10:56:52 PM 33.6617 -112.0514 34° Northeast 295 339 10,400  Level Albuquerque Center
Sat 10:57:53 PM 33.7381 -111.9881 35° Northeast 335 386 11,100 934 Climbing Albuquerque Center
Sat 10:58:54 PM 33.8242 -111.9175 34° Northeast 370 426 12,300 1,328 Climbing Albuquerque Center
Sat 10:59:55 PM 33.9144 -111.8433 34° Northeast 391 450 13,800 1,475 Climbing Albuquerque Center
Sat 11:00:56 PM 34.0172 -111.7567 35° Northeast 411 473 15,300 1,707 Climbing Albuquerque Center
Sat 11:01:58 PM 34.1194 -111.7028 24° Northeast 402 463 17,300 1,707 Climbing Albuquerque Center
Sat 11:02:59 PM 34.2278 -111.6597 18° North 411 473 18,800 1,475 Climbing Albuquerque Center
Sat 11:04:00 PM 34.3386 -111.6164 18° North 418 481 20,300 1,328 Climbing Albuquerque Center
Sat 11:05:01 PM 34.4514 -111.5719 18° North 423 487 21,500 984 Climbing Albuquerque Center
Sat 11:06:02 PM 34.5675 -111.5406 13° North 433 498 22,300 689 Climbing Albuquerque Center
Sat 11:07:03 PM 34.7128 -111.5731 350° North 443 510 22,900 590 Climbing Albuquerque Center
Sat 11:08:04 PM 34.8383 -111.6028 349° North 456 525 23,500 689 Climbing Albuquerque Center
Sat 11:09:05 PM 34.9675 -111.6331 349° North 468 539 24,300 836 Climbing Albuquerque Center
Sat 11:10:06 PM 35.0978 -111.6633 349° North 474 545 25,200 885 Climbing Albuquerque Center
Sat 11:11:07 PM 35.2194 -111.7181 340° North 470 541 26,100 541 Climbing Albuquerque Center
Sat 11:12:08 PM 35.3286 -111.7789 336° Northwest 469 540 26,300 197 Climbing Albuquerque Center
Sat 11:13:09 PM 35.4772 -111.8647 335° Northwest 489 563 26,500 341 Climbing Albuquerque Center
Sat 11:14:11 PM 35.6033 -111.9369 335° Northwest 500 575 27,000 537 Climbing Albuquerque Center
Sat 11:15:12 PM 35.7294 -112.0108 335° Northwest 505 581 27,600 689 Climbing Albuquerque Center
Sat 11:16:13 PM 35.8561 -112.0842 335° Northwest 508 585 28,400 738 Climbing Albuquerque Center
Sat 11:17:14 PM 35.9817 -112.1564 335° Northwest 505 581 29,100 615 Climbing Albuquerque Center
Sat 11:18:10 PM 36.1117 -112.2194 339° North 510 587 29,600 661 Climbing Los Angeles Center
Sat 11:19:12 PM 36.2406 -112.2819 339° North 502 578 30,400 585 Climbing Los Angeles Center
Sat 11:20:13 PM 36.3661 -112.3575 334° Northwest 502 578 30,800 585 Climbing Los Angeles Center
Sat 11:21:15 PM 36.4856 -112.4461 329° Northwest 501 577 31,600 634 Climbing Los Angeles Center
Sat 11:22:16 PM 36.6075 -112.5317 331° Northwest 502 578 32,100 541 Climbing Los Angeles Center
Sat 11:23:17 PM 36.7511 -112.6353 330° Northwest 498 573 32,700 537 Climbing Los Angeles Center
Sat 11:24:19 PM 36.8714 -112.7225 330° Northwest 499 574 33,200 488 Climbing Los Angeles Center
Sat 11:25:20 PM 36.9911 -112.8094 330° Northwest 497 572 33,700 390 Climbing Los Angeles Center
Sat 11:26:22 PM 37.1106 -112.8975 330° Northwest 496 571 34,000 146 Climbing Los Angeles Center
Sat 11:27:23 PM 37.2306 -112.9850 330° Northwest 496 571 34,000  Level Los Angeles Center
Sat 11:28:25 PM 37.3500 -113.0739 329° Northwest 494 568 34,000  Level Los Angeles Center
Sat 11:29:01 PM 37.4208 -113.1275 329° Northwest 496 571 34,000  Level Salt Lake Center
Sat 11:30:02 PM 37.5408 -113.2164 330° Northwest 494 568 34,000  Level Salt Lake Center
Sat 11:31:03 PM 37.6600 -113.3058 329° Northwest 493 567 34,000  Level Salt Lake Center
Sat 11:32:04 PM 37.7778 -113.3944 329° Northwest 491 565 34,000  Level Salt Lake Center
Sat 11:33:05 PM 37.8964 -113.4822 330° Northwest 491 565 34,000  Level Salt Lake Center
Sat 11:34:06 PM 38.0158 -113.5714 330° Northwest 495 570 34,000  Level Salt Lake Center
Sat 11:35:07 PM 38.1347 -113.6603 330° Northwest 495 570 34,000  Level Salt Lake Center
Sat 11:36:08 PM 38.2553 -113.7489 330° Northwest 498 573 34,000  Level Salt Lake Center
Sat 11:37:09 PM 38.3722 -113.8378 329° Northwest 491 565 34,000  Level Salt Lake Center
Sat 11:38:10 PM 38.5117 -113.9425 330° Northwest 486 559 34,000  Level Salt Lake Center
Sat 11:39:11 PM 38.6275 -114.0331 329° Northwest 489 563 34,000  Level Salt Lake Center
Sat 11:40:12 PM 38.7436 -114.1200 330° Northwest 485 558 34,000 -49 Level Salt Lake Center
Sat 11:41:13 PM 38.8583 -114.2092 329° Northwest 485 558 33,900  Descending Salt Lake Center
Sat 11:42:14 PM 38.9742 -114.3003 329° Northwest 487 560 34,000 49 Climbing Salt Lake Center
Sat 11:43:15 PM 39.0922 -114.3908 329° Northwest 492 566 34,000  Level Salt Lake Center
Sat 11:44:16 PM 39.2072 -114.4822 328° Northwest 487 560 34,000  Level Salt Lake Center
Sat 11:45:17 PM 39.3169 -114.5678 329° Northwest 483 556 34,000  Level Salt Lake Center
Sat 11:46:18 PM 39.4453 -114.6675 329° Northwest 482 555 34,000  Level Salt Lake Center
Sat 11:47:19 PM 39.5564 -114.7531 329° Northwest 484 557 34,000  Level Salt Lake Center
Sat 11:48:20 PM 39.6642 -114.8403 328° Northwest 480 552 34,000  Level Salt Lake Center
Sat 11:49:20 PM 39.7928 -114.9419 329° Northwest 485 558 34,000  Level Salt Lake Center
Sat 11:50:21 PM 39.9050 -115.0297 329° Northwest 490 564 34,000  Level Salt Lake Center
Sat 11:51:22 PM 40.0325 -115.1328 328° Northwest 485 558 34,000  Level Salt Lake Center
Sat 11:52:23 PM 40.1411 -115.2214 328° Northwest 482 555 34,000  Level Salt Lake Center
Sat 11:53:24 PM 40.2525 -115.3097 329° Northwest 485 558 34,000  Level Salt Lake Center
Sat 11:54:25 PM 40.3817 -115.4144 328° Northwest 491 565 34,000  Level Salt Lake Center
Sat 11:55:26 PM 40.4911 -115.5044 328° Northwest 488 562 34,000  Level Salt Lake Center
Sat 11:56:27 PM 40.5969 -115.5933 327° Northwest 481 554 34,000  Level Salt Lake Center
Sat 11:57:28 PM 40.7242 -115.6975 328° Northwest 483 556 34,000  Level Salt Lake Center
Sat 11:58:28 PM 40.8356 -115.7883 328° Northwest 489 563 34,000  Level Salt Lake Center
Sat 11:59:29 PM 40.9450 -115.8783 328° Northwest 488 562 34,000  Level Salt Lake Center
Sun 12:00:30 AM 41.0711 -115.9842 328° Northwest 484 557 34,000  Level Salt Lake Center
Sun 12:01:31 AM 41.1800 -116.0744 328° Northwest 485 558 34,000  Level Salt Lake Center
Sun 12:02:32 AM 41.3072 -116.1817 328° Northwest 485 558 34,000  Level Salt Lake Center
Sun 12:03:33 AM 41.4139 -116.2736 327° Northwest 480 552 34,000  Level Salt Lake Center
Sun 12:04:34 AM 41.5214 -116.3650 328° Northwest 481 554 34,000  Level Salt Lake Center
Sun 12:05:34 AM 41.6475 -116.4719 328° Northwest 480 552 34,000  Level Salt Lake Center
Sun 12:06:35 AM 41.7542 -116.5642 327° Northwest 479 551 34,000  Level Salt Lake Center
Sun 12:07:36 AM 41.8622 -116.6547 328° Northwest 481 554 34,000  Level Salt Lake Center
Sun 12:08:37 AM 41.9867 -116.7608 328° Northwest 475 547 34,000  Level Salt Lake Center
Sun 12:09:38 AM 42.0931 -116.8531 327° Northwest 475 547 34,000  Level Salt Lake Center
Sun 12:10:39 AM 42.1994 -116.9461 327° Northwest 476 548 34,000  Level Salt Lake Center
Sun 12:11:40 AM 42.3206 -117.0519 327° Northwest 473 544 34,000 -50 Level Salt Lake Center
Sun 12:12:40 AM 42.4256 -117.1456 327° Northwest 473 544 33,900  Descending Salt Lake Center
Sun 12:13:41 AM 42.5503 -117.2536 327° Northwest 473 544 34,000 49 Climbing Salt Lake Center
Sun 12:14:42 AM 42.6542 -117.3464 327° Northwest 467 537 34,000  Level Salt Lake Center
Sun 12:15:43 AM 42.7603 -117.4411 327° Northwest 474 545 34,000  Level Salt Lake Center
Sun 12:16:44 AM 42.8836 -117.5497 327° Northwest 471 542 34,000  Level Salt Lake Center
Sun 12:17:45 AM 42.9881 -117.6444 326° Northwest 468 539 34,000  Level Salt Lake Center
Sun 12:18:46 AM 43.0931 -117.7397 326° Northwest 471 542 34,000  Level Salt Lake Center
Sun 12:19:47 AM 43.2142 -117.8489 327° Northwest 467 537 34,000  Level Salt Lake Center
Sun 12:20:47 AM 43.3189 -117.9433 327° Northwest 470 541 34,000  Level Salt Lake Center
Sun 12:21:48 AM 43.4236 -118.0381 327° Northwest 470 541 34,000  Level Salt Lake Center
Sun 12:22:49 AM 43.5450 -118.1503 326° Northwest 470 541 34,000  Level Salt Lake Center
Sun 12:23:50 AM 43.6494 -118.2467 326° Northwest 470 541 34,000  Level Salt Lake Center
Sun 12:24:51 AM 43.7497 -118.3372 327° Northwest 470 541 34,000  Level Salt Lake Center
Sun 12:25:51 AM 43.8356 -118.4158 327° Northwest 465 535 34,000  Level Salt Lake Center
Sun 12:26:21 AM 43.9247 -118.5011 325° Northwest 463 533 34,000  Level Seattle Center
Sun 12:27:21 AM 44.0281 -118.5978 326° Northwest 465 535 34,000  Level Seattle Center
Sun 12:28:22 AM 44.1319 -118.6961 326° Northwest 458 527 34,000  Level Seattle Center
Sun 12:28:54 AM 44.1761 -118.7350 328° Northwest 461 531 34,000  Level Salt Lake Center
Sun 12:29:55 AM 44.3025 -118.8547 326° Northwest 459 528 34,000  Level Salt Lake Center
Sun 12:30:56 AM 44.4092 -118.9553 326° Northwest 462 532 34,000  Level Salt Lake Center
Sun 12:31:57 AM 44.5153 -119.0553 326° Northwest 462 532 34,000  Level Salt Lake Center
Sun 12:32:58 AM 44.6189 -119.1561 325° Northwest 457 526 34,000  Level Salt Lake Center
Sun 12:33:59 AM 44.7250 -119.2575 326° Northwest 462 532 34,000  Level Salt Lake Center
Sun 12:34:59 AM 44.8294 -119.3575 326° Northwest 459 528 34,000  Level Salt Lake Center
Sun 12:36:00 AM 44.9344 -119.4597 325° Northwest 462 532 34,000  Level Salt Lake Center
Sun 12:37:01 AM 45.0389 -119.5608 326° Northwest 463 533 34,000  Level Salt Lake Center
Sun 12:38:02 AM 45.1422 -119.6642 325° Northwest 461 531 34,000  Level Salt Lake Center
Sun 12:39:28 AM 45.3092 -119.8272 326° Northwest 462 532 34,000  Level Seattle Center
Sun 12:40:28 AM 45.4144 -119.9314 325° Northwest 465 535 34,000  Level Seattle Center
Sun 12:41:29 AM 45.5183 -120.0344 325° Northwest 460 529 34,000  Level Seattle Center
Sun 12:42:29 AM 45.6233 -120.1397 325° Northwest 462 532 34,000  Level Seattle Center
Sun 12:43:30 AM 45.7283 -120.2475 324° Northwest 465 535 34,000  Level Seattle Center
Sun 12:44:30 AM 45.8328 -120.3525 325° Northwest 464 534 34,000  Level Seattle Center
Sun 12:45:31 AM 45.9369 -120.4572 325° Northwest 458 527 34,000  Level Seattle Center
Sun 12:46:31 AM 46.0425 -120.5644 325° Northwest 464 534 34,000  Level Seattle Center
Sun 12:47:32 AM 46.1453 -120.6694 325° Northwest 456 525 34,000  Level Seattle Center
Sun 12:48:33 AM 46.2494 -120.7764 325° Northwest 459 528 34,000  Level Seattle Center
Sun 12:49:33 AM 46.3531 -120.8822 325° Northwest 459 528 34,000  Level Seattle Center
Sun 12:50:34 AM 46.4558 -120.9900 324° Northwest 457 526 34,000  Level Seattle Center
Sun 12:51:34 AM 46.5561 -121.0967 324° Northwest 451 519 34,000  Level Seattle Center
Sun 12:52:35 AM 46.6589 -121.2033 325° Northwest 455 524 34,000  Level Seattle Center
Sun 12:53:35 AM 46.7617 -121.3100 325° Northwest 454 522 34,000  Level Seattle Center
Sun 12:54:36 AM 46.8614 -121.4158 324° Northwest 447 514 34,000  Level Seattle Center
Sun 12:55:36 AM 46.9603 -121.5197 324° Northwest 441 507 34,000  Level Seattle Center
Sun 12:56:37 AM 47.0597 -121.6292 323° Northwest 442 509 34,000  Level Seattle Center
Sun 12:57:37 AM 47.1764 -121.7547 324° Northwest 439 505 34,000  Level Seattle Center
Sun 12:58:38 AM 47.2742 -121.8597 324° Northwest 440 506 34,000  Level Seattle Center
Sun 12:59:38 AM 47.3736 -121.9653 324° Northwest 445 512 34,000  Level Seattle Center
Sun 01:00:39 AM 47.4714 -122.0717 324° Northwest 444 511 34,000  Level Seattle Center
Sun 01:01:39 AM 47.5689 -122.1764 324° Northwest 442 509 34,000  Level Seattle Center
Sun 01:02:40 AM 47.6611 -122.2739 325° Northwest 437 503 34,000  Level Seattle Center
Sun 01:03:40 AM 47.7664 -122.3950 322° Northwest 448 516 34,000  Level Seattle Center
Sun 01:04:41 AM 47.8753 -122.5153 323° Northwest 442 509 34,000  Level Seattle Center
Sun 01:05:41 AM 47.9711 -122.6231 323° Northwest 438 504 34,000  Level Seattle Center
Sun 01:06:42 AM 48.0683 -122.7314 323° Northwest 441 507 34,000  Level Seattle Center
Sun 01:07:42 AM 48.1653 -122.8403 323° Northwest 441 507 34,000  Level Seattle Center
Sun 01:08:43 AM 48.2611 -122.9497 323° Northwest 439 505 34,000  Level Seattle Center
Sun 01:09:43 AM 48.3569 -123.0581 323° Northwest 437 503 34,000  Level Seattle Center
Sun 01:10:28 AM 48.4167 -123.1500 314° West 440 506 34,000  Level Vancouver Center
Sun 01:11:28 AM 48.5167 -123.2500 326° Northwest 430 495 34,000  Level Vancouver Center
Sun 01:12:28 AM 48.6000 -123.3667 317° Northwest 430 495 34,000  Level Vancouver Center
Sun 01:13:28 AM 48.7000 -123.4667 327° Northwest 440 506 34,000  Level Vancouver Center
Sun 01:14:28 AM 48.8000 -123.6000 319° Northwest 440 506 34,000  Level Vancouver Center
Sun 01:15:28 AM 48.9000 -123.7000 327° Northwest 440 506 34,000  Level Vancouver Center
Sun 01:16:28 AM 49.0000 -123.8167 323° Northwest 440 506 34,000  Level Vancouver Center
Sun 01:17:28 AM 49.1000 -123.9333 323° Northwest 440 506 34,000  Level Vancouver Center
Sun 01:18:28 AM 49.2000 -124.0333 327° Northwest 440 506 34,000  Level Vancouver Center
Sun 01:19:28 AM 49.3000 -124.1333 327° Northwest 440 506 34,000  Level Vancouver Center
Sun 01:20:28 AM 49.3833 -124.2667 314° West 440 506 34,000  Level Vancouver Center
Sun 01:21:28 AM 49.5000 -124.3667 331° Northwest 440 506 34,000  Level Vancouver Center
Sun 01:22:28 AM 49.5833 -124.4667 322° Northwest 440 506 34,000  Level Vancouver Center
Sun 01:23:28 AM 49.6833 -124.5667 327° Northwest 440 506 34,000  Level Vancouver Center
Sun 01:24:28 AM 49.7833 -124.7000 319° Northwest 440 506 34,000  Level Vancouver Center
Sun 01:25:28 AM 49.8833 -124.8167 323° Northwest 440 506 34,000  Level Vancouver Center
Sun 01:26:28 AM 49.9833 -124.9167 327° Northwest 440 506 34,000  Level Vancouver Center
Sun 01:27:28 AM 50.0833 -125.0500 319° Northwest 440 506 34,000  Level Vancouver Center
Sun 01:28:28 AM 50.1833 -125.1500 327° Northwest 440 506 34,000  Level Vancouver Center
Sun 01:29:28 AM 50.2833 -125.2667 323° Northwest 440 506 34,000  Level Vancouver Center
Sun 01:30:28 AM 50.3833 -125.4000 320° Northwest 440 506 34,000  Level Vancouver Center
Sun 01:31:28 AM 50.4833 -125.5000 328° Northwest 440 506 34,000  Level Vancouver Center
Sun 01:32:28 AM 50.5667 -125.6167 318° Northwest 440 506 34,000  Level Vancouver Center
Sun 01:33:28 AM 50.6667 -125.7500 320° Northwest 450 518 34,000  Level Vancouver Center
Sun 01:34:28 AM 50.7667 -125.8500 328° Northwest 450 518 34,000  Level Vancouver Center
Sun 01:35:28 AM 50.8667 -126.0000 317° Northwest 450 518 34,000  Level Vancouver Center
Sun 01:36:28 AM 50.9667 -126.1000 328° Northwest 450 518 34,000  Level Vancouver Center
Sun 01:37:28 AM 51.0667 -126.2500 317° Northwest 450 518 34,000  Level Vancouver Center
Sun 01:38:28 AM 51.1667 -126.3500 328° Northwest 450 518 34,000  Level Vancouver Center
Sun 01:39:28 AM 51.2667 -126.4667 324° Northwest 450 518 34,000  Level Vancouver Center
Sun 01:40:28 AM 51.3667 -126.6000 320° Northwest 450 518 34,000  Level Vancouver Center
Sun 01:41:28 AM 51.4500 -126.7167 319° Northwest 450 518 34,000  Level Vancouver Center
Sun 01:42:28 AM 51.5500 -126.8667 317° Northwest 450 518 34,000  Level Vancouver Center
Sun 01:43:28 AM 51.6500 -126.9667 328° Northwest 450 518 34,000  Level Vancouver Center
Sun 01:44:28 AM 51.7500 -127.1167 317° Northwest 450 518 34,000  Level Vancouver Center
Sun 01:45:28 AM 51.8500 -127.2333 324° Northwest 460 529 34,000  Level Vancouver Center
Sun 01:46:28 AM 51.9500 -127.3667 321° Northwest 460 529 34,000  Level Vancouver Center
Sun 01:47:28 AM 52.0500 -127.4833 324° Northwest 460 529 34,000  Level Vancouver Center
Sun 01:48:28 AM 52.1500 -127.6333 317° Northwest 460 529 34,000  Level Vancouver Center
Sun 01:49:28 AM 52.2500 -127.7500 324° Northwest 460 529 34,000  Level Vancouver Center
Sun 01:50:28 AM 52.3500 -127.9000 318° Northwest 460 529 34,000  Level Vancouver Center
Sun 01:51:28 AM 52.4500 -128.0167 325° Northwest 460 529 34,000  Level Vancouver Center
Sun 01:52:28 AM 52.5500 -128.1667 318° Northwest 460 529 34,000  Level Vancouver Center
Sun 01:53:28 AM 52.6500 -128.2833 325° Northwest 470 541 34,000  Level Vancouver Center
Sun 01:54:28 AM 52.7500 -128.4333 318° Northwest 470 541 34,000  Level Vancouver Center
Sun 01:55:28 AM 52.8500 -128.5500 325° Northwest 470 541 34,000  Level Vancouver Center
Sun 01:56:28 AM 52.9500 -128.7000 318° Northwest 470 541 34,000  Level Vancouver Center
Sun 01:57:28 AM 53.0333 -128.8500 313° West 470 541 34,000  Level Vancouver Center
Sun 01:58:28 AM 53.1500 -128.9833 326° Northwest 470 541 34,000  Level Vancouver Center
Sun 01:59:28 AM 53.2500 -129.1333 318° Northwest 470 541 34,000  Level Vancouver Center
Sun 02:00:28 AM 53.3333 -129.2833 313° West 470 541 34,000  Level Vancouver Center
Sun 02:01:28 AM 53.4333 -129.4000 325° Northwest 470 541 34,000  Level Vancouver Center
Sun 02:02:28 AM 53.5500 -129.5667 320° Northwest 470 541 34,000  Level Vancouver Center
Sun 02:03:28 AM 53.6333 -129.6833 320° Northwest 480 552 34,000  Level Vancouver Center
Sun 02:04:28 AM 53.7500 -129.8333 323° Northwest 460 529 34,000  Level Vancouver Center
Sun 02:05:28 AM 53.8333 -129.9667 317° Northwest 470 541 34,000  Level Vancouver Center
Sun 02:06:28 AM 53.9333 -130.1167 319° Northwest 470 541 34,000  Level Vancouver Center
Sun 02:07:28 AM 54.0333 -130.2833 316° Northwest 470 541 34,000  Level Vancouver Center
Sun 02:08:28 AM 54.1333 -130.4167 322° Northwest 460 529 34,000  Level Vancouver Center
Sun 02:09:28 AM 54.2333 -130.5667 319° Northwest 470 541 34,000  Level Vancouver Center
Sun 02:10:28 AM 54.3167 -130.7000 317° Northwest 470 541 34,000  Level Vancouver Center
Sun 02:11:28 AM 54.4167 -130.8500 319° Northwest 460 529 34,000  Level Vancouver Center
Sun 02:12:28 AM 54.5167 -130.9833 322° Northwest 460 529 34,000  Level Vancouver Center
Sun 02:13:28 AM 54.6167 -131.1500 316° Northwest 460 529 34,000  Level Vancouver Center
Sun 02:14:28 AM 54.6833 -131.3167 305° West 460 529 34,000  Level Vancouver Center
Sun 02:15:28 AM 54.7833 -131.4667 319° Northwest 460 529 34,000  Level Vancouver Center
Sun 02:16:10 AM 54.8333 -131.5500 316° Northwest 460 529 34,000  Level Anchorage Center
Sun 02:17:11 AM 54.9167 -131.7000 314° West 460 529 34,000  Level Anchorage Center
Sun 02:18:11 AM 55.0167 -131.8667 316° Northwest 460 529 34,000  Level Anchorage Center
Sun 02:19:11 AM 55.1000 -132.0333 311° West 460 529 34,000  Level Anchorage Center
Sun 02:20:12 AM 55.1833 -132.2000 311° West 460 529 34,000  Level Anchorage Center
Sun 02:21:12 AM 55.2667 -132.3833 309° West 460 529 34,000  Level Anchorage Center
Sun 02:23:13 AM 55.4333 -132.6833 314° West 450 518 34,000  Level Anchorage Center
Sun 02:25:13 AM 55.6000 -133.0167 312° West 460 529 34,000  Level Anchorage Center
Sun 02:26:13 AM 55.6833 -133.1833 312° West 450 518 34,000  Level Anchorage Center
Sun 02:27:14 AM 55.7667 -133.3500 312° West 460 529 34,000  Level Anchorage Center
Sun 02:29:15 AM 55.9333 -133.6833 312° West 460 529 34,000  Level Anchorage Center
Sun 02:30:15 AM 56.0167 -133.8667 309° West 450 518 34,000  Level Anchorage Center
Sun 02:31:15 AM 56.0833 -134.0333 306° West 450 518 34,000  Level Anchorage Center
Sun 02:32:16 AM 56.1667 -134.2000 312° West 450 518 34,000  Level Anchorage Center
Sun 02:33:16 AM 56.2500 -134.3667 312° West 440 506 34,000  Level Anchorage Center
Sun 02:34:16 AM 56.3333 -134.5333 312° West 440 506 34,000  Level Anchorage Center
Sun 02:35:17 AM 56.4000 -134.7000 306° West 440 506 34,000  Level Anchorage Center
Sun 02:37:28 AM 56.5833 -135.1500 307° West 440 506 34,000  Level Vancouver Center
Sun 02:38:18 AM 56.6333 -135.2167 324° Northwest 430 495 34,000  Level Anchorage Center
Sun 02:39:18 AM 56.7167 -135.3833 312° West 420 483 34,000  Level Anchorage Center
Sun 02:40:19 AM 56.8000 -135.5500 312° West 440 506 34,000  Level Anchorage Center
Sun 02:41:19 AM 56.8667 -135.7333 304° West 440 506 34,000  Level Anchorage Center
Sun 02:42:19 AM 56.9500 -135.9000 313° West 430 495 34,000  Level Anchorage Center
Sun 02:43:20 AM 57.0167 -136.0833 304° West 430 495 34,000  Level Anchorage Center
Sun 02:44:20 AM 57.1000 -136.2500 313° West 420 483 34,000  Level Anchorage Center
Sun 02:45:20 AM 57.1667 -136.4167 306° West 420 483 34,000  Level Anchorage Center
Sun 02:46:34 AM 57.2667 -136.6833 305° West 430 495 34,000  Level Vancouver Center
Sun 02:47:34 AM 57.3333 -136.8667 304° West 430 495 34,000  Level Vancouver Center
Sun 02:48:34 AM 57.4167 -137.0500 310° West 430 495 34,000  Level Vancouver Center
Sun 02:49:22 AM 57.4667 -137.1000 332° Northwest 420 483 34,000  Level Anchorage Center
Sun 02:50:22 AM 57.5333 -137.2833 304° West 410 472 34,000  Level Anchorage Center
Sun 02:51:22 AM 57.6000 -137.4500 307° West 420 483 34,000  Level Anchorage Center
Sun 02:52:23 AM 57.6833 -137.6167 313° West 420 483 34,000  Level Anchorage Center
Sun 02:53:23 AM 57.7500 -137.8000 304° West 420 483 34,000  Level Anchorage Center
Sun 02:54:24 AM 57.8000 -137.9333 305° West 430 495 34,000  Level Anchorage Center
Sun 02:56:24 AM 57.9667 -138.3333 308° West 420 483 34,000  Level Anchorage Center
Sun 02:57:25 AM 58.0333 -138.5000 307° West 430 495 34,000  Level Anchorage Center
Sun 02:58:25 AM 58.1000 -138.6833 305° West 420 483 34,000  Level Anchorage Center
Sun 02:59:25 AM 58.1833 -138.8667 311° West 420 483 34,000  Level Anchorage Center
Sun 03:00:26 AM 58.2500 -139.0500 305° West 430 495 34,000  Level Anchorage Center
Sun 03:01:26 AM 58.3167 -139.2333 305° West 430 495 34,000  Level Anchorage Center
Sun 03:02:26 AM 58.3833 -139.4167 305° West 420 483 34,000  Level Anchorage Center
Sun 03:03:27 AM 58.4500 -139.6000 305° West 410 472 34,000  Level Anchorage Center
Sun 03:04:27 AM 58.5167 -139.7667 307° West 400 460 34,000  Level Anchorage Center
Sun 03:05:27 AM 58.5833 -139.9500 305° West 400 460 34,000  Level Anchorage Center
Sun 03:06:27 AM 58.6500 -140.1167 308° West 400 460 34,000  Level Anchorage Center
Sun 03:07:28 AM 58.7167 -140.3000 305° West 400 460 34,000  Level Anchorage Center
Sun 03:08:28 AM 58.7833 -140.4667 308° West 410 472 34,000  Level Anchorage Center
Sun 03:09:28 AM 58.8333 -140.6667 296° West 410 472 34,000  Level Anchorage Center
Sun 03:10:29 AM 58.9000 -140.8500 305° West 400 460 34,000  Level Anchorage Center
Sun 03:11:29 AM 58.9500 -141.0333 298° West 400 460 34,000  Level Anchorage Center
Sun 03:12:29 AM 59.0000 -141.2333 296° West 400 460 34,000  Level Anchorage Center
Sun 03:13:30 AM 59.0667 -141.4167 305° West 400 460 34,000  Level Anchorage Center
Sun 03:14:30 AM 59.1167 -141.6167 296° West 410 472 34,000  Level Anchorage Center
Sun 03:15:31 AM 59.1667 -141.8000 298° West 400 460 34,000  Level Anchorage Center
Sun 03:16:31 AM 59.2167 -142.0000 296° West 400 460 34,000  Level Anchorage Center
Sun 03:17:31 AM 59.2833 -142.1833 305° West 400 460 34,000  Level Anchorage Center
Sun 03:18:32 AM 59.3333 -142.3833 296° West 410 472 34,000  Level Anchorage Center
Sun 03:19:32 AM 59.3833 -142.5833 296° West 400 460 34,000  Level Anchorage Center
Sun 03:20:32 AM 59.4333 -142.7667 298° West 400 460 34,000  Level Anchorage Center
Sun 03:21:33 AM 59.5000 -142.9833 301° West 410 472 34,000  Level Anchorage Center
Sun 03:22:33 AM 59.5500 -143.1833 296° West 410 472 34,000  Level Anchorage Center
Sun 03:23:33 AM 59.6000 -143.3833 296° West 410 472 34,000  Level Anchorage Center
Sun 03:24:34 AM 59.6667 -143.5833 303° West 410 472 34,000  Level Anchorage Center
Sun 03:25:34 AM 59.7167 -143.7833 296° West 400 460 34,000  Level Anchorage Center
Sun 03:26:34 AM 59.7667 -143.9833 296° West 410 472 34,000  Level Anchorage Center
Sun 03:28:35 AM 59.8667 -144.4000 296° West 410 472 34,000  Level Anchorage Center
Sun 03:29:35 AM 59.9167 -144.6000 297° West 410 472 34,000  Level Anchorage Center
Sun 03:31:36 AM 60.0333 -145.0167 299° West 420 483 34,000  Level Anchorage Center
Sun 03:32:37 AM 60.0833 -145.2167 297° West 420 483 34,000  Level Anchorage Center
Sun 03:33:37 AM 60.1333 -145.4333 295° West 420 483 34,000  Level Anchorage Center
Sun 03:34:37 AM 60.1833 -145.6500 295° West 430 495 34,000  Level Anchorage Center
Sun 03:35:38 AM 60.2333 -145.8667 295° West 430 495 34,000  Level Anchorage Center
Sun 03:37:38 AM 60.3333 -146.3000 295° West 430 495 34,000  Level Anchorage Center
Sun 03:38:39 AM 60.3833 -146.5167 295° West 430 495 34,000  Level Anchorage Center
Sun 03:40:39 AM 60.4833 -146.9667 294° West 430 495 34,000  Level Anchorage Center
Sun 03:41:40 AM 60.5333 -147.2000 294° West 440 506 34,000  Level Anchorage Center
Sun 03:42:40 AM 60.6000 -147.4500 299° West 450 518 34,000  Level Anchorage Center
Sun 03:43:40 AM 60.6500 -147.7000 292° West 440 506 34,000 -645 Level Anchorage Center
Sun 03:44:41 AM 60.7000 -147.9167 295° West 450 518 32,700 -2,678 Descending Anchorage Center
Sun 03:45:41 AM 60.7500 -148.1500 294° West 460 529 28,600 -3,620 Descending Anchorage Center
Sun 03:46:42 AM 60.8000 -148.4000 292° West 470 541 25,400 -3,322 Descending Anchorage Center
Sun 03:47:42 AM 60.8500 -148.6500 292° West 470 541 21,900 -3,500 Descending Anchorage Center
Sun 03:49:00 AM 60.9071 -148.9513 293° West  Level FlightAware Approximate
Sun 03:56:00 AM 61.1667 -149.9833 270° West  Level FlightAware Approximate
Sun 03:57:00 AM 61.1741 -149.9982 270° West  Level Estimated
Sun 03:58:00 AM 61.1741 -149.9982 270° West  Level Estimated
Sun 03:59:00 AM 61.1741 -149.9982 270° West  Level Estimated
Sun 04:00:00 AM 61.1741 -149.9982 270° West  Level Estimated
Sun 04:01:00 AM 61.1741 -149.9982 270° West  Level Estimated
Sun 04:02:00 AM 61.1741 -149.9982 270° West  Level Estimated
Sun 04:03:00 AM 61.1741 -149.9982 270° West  Level Estimated

Login

Don't have an account? Register now (free) for customized features, flight alerts, and more!